createdAt,value
2017-12-17T00:00:30.917Z,84.10
2017-12-17T00:02:58.529Z,84.20
2017-12-17T00:05:26.108Z,84.10
2017-12-17T00:07:53.735Z,84.50
2017-12-17T00:10:21.297Z,84.40
2017-12-17T00:12:48.898Z,84.60
2017-12-17T00:15:16.511Z,84.50
2017-12-17T00:17:44.082Z,84.60
2017-12-17T00:20:11.650Z,84.50
2017-12-17T00:22:39.274Z,84.50
2017-12-17T00:25:06.882Z,84.20
2017-12-17T00:27:34.474Z,84.40
2017-12-17T00:30:02.056Z,84.80
2017-12-17T00:32:29.662Z,84.50
2017-12-17T00:34:57.309Z,84.80
2017-12-17T00:37:24.885Z,85.20
2017-12-17T00:39:52.452Z,85.30
2017-12-17T00:42:20.828Z,85.40
2017-12-17T00:44:49.223Z,85.10
2017-12-17T00:47:17.566Z,84.60
2017-12-17T00:49:45.130Z,84.50
2017-12-17T00:52:12.750Z,84.70
2017-12-17T00:54:40.372Z,84.60
2017-12-17T00:57:08.730Z,84.80
2017-12-17T00:59:36.297Z,84.80
2017-12-17T01:02:03.886Z,84.90
2017-12-17T01:04:32.247Z,84.70
2017-12-17T01:06:59.873Z,84.70
2017-12-17T01:09:27.489Z,84.70
2017-12-17T01:11:55.822Z,84.60
2017-12-17T01:14:23.387Z,84.60
2017-12-17T01:16:51.006Z,84.80
2017-12-17T01:19:18.568Z,85.30
2017-12-17T01:21:46.166Z,85.10
2017-12-17T01:24:13.776Z,84.60
2017-12-17T01:26:41.369Z,84.50
2017-12-17T01:29:08.993Z,84.40
2017-12-17T01:31:37.329Z,84.90
2017-12-17T01:34:04.902Z,84.90
2017-12-17T01:36:32.504Z,85.00
2017-12-17T01:39:00.075Z,85.40
2017-12-17T01:41:27.678Z,85.60
2017-12-17T01:43:55.262Z,85.80
2017-12-17T01:46:23.630Z,84.90
2017-12-17T01:48:51.202Z,84.90
2017-12-17T01:51:19.573Z,84.70
2017-12-17T01:53:47.130Z,84.70
2017-12-17T01:56:14.746Z,84.70
2017-12-17T01:58:42.329Z,84.80
2017-12-17T02:01:09.936Z,84.70
2017-12-17T02:03:38.341Z,84.70
2017-12-17T02:06:05.942Z,84.70
2017-12-17T02:08:33.499Z,85.00
2017-12-17T02:11:01.111Z,84.80
2017-12-17T02:13:28.715Z,84.80
2017-12-17T02:15:56.344Z,84.90
2017-12-17T02:18:23.898Z,84.60
2017-12-17T02:20:51.466Z,84.70
2017-12-17T02:23:19.085Z,84.90
2017-12-17T02:25:47.447Z,84.50
2017-12-17T02:28:15.014Z,84.50
2017-12-17T02:30:42.615Z,84.50
2017-12-17T02:33:10.239Z,84.60
2017-12-17T02:35:37.843Z,84.60
2017-12-17T02:38:05.446Z,84.60
2017-12-17T02:40:33.027Z,84.70
2017-12-17T02:43:00.643Z,84.50
2017-12-17T02:45:28.233Z,84.10
2017-12-17T02:47:55.790Z,84.20
2017-12-17T02:50:23.398Z,84.10
2017-12-17T02:52:50.978Z,84.10
2017-12-17T02:55:18.587Z,84.30
2017-12-17T02:57:46.150Z,83.90
2017-12-17T03:00:14.541Z,84.30
2017-12-17T03:02:42.110Z,84.30
2017-12-17T03:05:10.425Z,84.00
2017-12-17T03:07:38.016Z,84.00
2017-12-17T03:10:05.591Z,84.00
2017-12-17T03:12:33.177Z,84.70
2017-12-17T03:15:01.526Z,85.10
2017-12-17T03:17:29.131Z,84.40
2017-12-17T03:19:56.701Z,84.30
2017-12-17T03:22:24.273Z,84.70
2017-12-17T03:24:51.910Z,84.20
2017-12-17T03:27:19.482Z,84.20
2017-12-17T03:29:47.053Z,83.80
2017-12-17T03:32:15.422Z,83.90
2017-12-17T03:34:42.991Z,83.90
2017-12-17T03:37:10.605Z,83.60
2017-12-17T03:39:38.166Z,84.10
2017-12-17T03:42:05.768Z,83.70
2017-12-17T03:44:33.382Z,83.60
2017-12-17T03:47:00.941Z,83.40
2017-12-17T03:49:28.559Z,83.60
2017-12-17T03:51:56.122Z,83.80
2017-12-17T03:54:23.692Z,83.60
2017-12-17T03:56:51.298Z,83.80
2017-12-17T03:59:19.667Z,83.70
2017-12-17T04:01:49.416Z,83.70
2017-12-17T04:04:17.026Z,83.40
2017-12-17T04:06:44.596Z,82.90
2017-12-17T04:09:12.193Z,83.60
2017-12-17T04:11:39.773Z,82.90
2017-12-17T04:14:07.372Z,82.80
2017-12-17T04:16:34.986Z,82.80
2017-12-17T04:19:02.541Z,83.50
2017-12-17T04:21:30.152Z,83.20
2017-12-17T04:23:57.733Z,83.10
2017-12-17T04:26:26.060Z,83.10
2017-12-17T04:28:53.670Z,83.10
2017-12-17T04:31:21.283Z,82.90
2017-12-17T04:33:48.873Z,82.80
2017-12-17T04:36:16.492Z,83.00
2017-12-17T04:38:44.089Z,82.80
2017-12-17T04:41:11.706Z,82.90
2017-12-17T04:43:39.309Z,82.90
2017-12-17T04:46:06.918Z,82.40
2017-12-17T04:48:35.286Z,81.50
2017-12-17T04:51:03.646Z,81.70
2017-12-17T04:53:31.251Z,81.70
2017-12-17T04:55:58.858Z,81.90
2017-12-17T04:58:26.430Z,81.90
2017-12-17T05:00:54.046Z,81.90
2017-12-17T05:03:22.390Z,82.20
2017-12-17T05:05:50.717Z,82.00
2017-12-17T05:08:18.311Z,81.90
2017-12-17T05:10:45.917Z,82.10
2017-12-17T05:13:13.486Z,82.20
2017-12-17T05:15:41.087Z,82.50
2017-12-17T05:18:08.722Z,82.40
2017-12-17T05:20:36.287Z,82.60
2017-12-17T05:23:03.856Z,82.50
2017-12-17T05:25:31.474Z,83.00
2017-12-17T05:27:59.038Z,82.70
2017-12-17T05:30:26.612Z,82.90
2017-12-17T05:32:54.218Z,83.00
2017-12-17T05:35:21.803Z,82.80
2017-12-17T05:37:50.188Z,82.70
2017-12-17T05:40:18.562Z,82.60
2017-12-17T05:42:46.936Z,82.60
2017-12-17T05:45:15.273Z,82.90
2017-12-17T05:47:42.845Z,82.90
2017-12-17T05:50:10.475Z,82.60
2017-12-17T05:52:38.099Z,82.90
2017-12-17T05:55:06.437Z,83.00
2017-12-17T05:57:33.997Z,83.00
2017-12-17T06:00:01.606Z,82.80
2017-12-17T06:02:29.922Z,83.00
2017-12-17T06:04:57.538Z,83.00
2017-12-17T06:07:25.871Z,83.00
2017-12-17T06:09:53.502Z,83.00
2017-12-17T06:12:21.062Z,83.60
2017-12-17T06:14:48.643Z,83.60
2017-12-17T06:17:16.245Z,83.30
2017-12-17T06:19:43.879Z,83.70
2017-12-17T06:22:11.446Z,83.40
2017-12-17T06:24:39.033Z,84.10
2017-12-17T06:27:06.625Z,84.20
2017-12-17T06:29:34.228Z,84.10
2017-12-17T06:32:01.813Z,84.40
2017-12-17T06:34:29.402Z,84.10
2017-12-17T06:36:57.778Z,84.80
2017-12-17T06:39:26.093Z,85.50
2017-12-17T06:41:53.653Z,85.50
2017-12-17T06:44:21.270Z,85.40
2017-12-17T06:46:49.659Z,85.30
2017-12-17T06:49:17.986Z,85.40
2017-12-17T06:51:45.567Z,85.40
2017-12-17T06:54:13.170Z,85.50
2017-12-17T06:56:40.737Z,85.20
2017-12-17T06:59:08.337Z,85.10
2017-12-17T07:01:35.900Z,85.70
2017-12-17T07:04:03.514Z,85.80
2017-12-17T07:06:31.094Z,86.00
2017-12-17T07:08:58.659Z,86.00
2017-12-17T07:11:26.259Z,85.80
2017-12-17T07:13:53.853Z,86.60
2017-12-17T07:16:21.486Z,86.40
2017-12-17T07:18:49.043Z,86.10
2017-12-17T07:21:16.662Z,86.80
2017-12-17T07:23:44.241Z,85.90
2017-12-17T07:26:11.839Z,85.50
2017-12-17T07:28:39.443Z,86.40
2017-12-17T07:31:07.015Z,86.50
2017-12-17T07:33:34.654Z,85.80
2017-12-17T07:36:02.239Z,86.10
2017-12-17T07:38:29.799Z,85.50
2017-12-17T07:40:57.402Z,85.10
2017-12-17T07:43:25.749Z,85.10
2017-12-17T07:45:53.358Z,85.00
2017-12-17T07:48:21.744Z,84.30
2017-12-17T07:50:49.363Z,84.20
2017-12-17T07:53:16.921Z,84.40
2017-12-17T07:55:44.533Z,82.90
2017-12-17T07:58:12.130Z,83.50
2017-12-17T08:00:39.738Z,84.40
2017-12-17T08:03:08.082Z,83.20
2017-12-17T08:05:35.665Z,83.20
2017-12-17T08:08:04.041Z,83.10
2017-12-17T08:10:32.413Z,83.00
2017-12-17T08:13:00.039Z,83.00
2017-12-17T08:15:27.683Z,82.80
2017-12-17T08:17:55.278Z,82.70
2017-12-17T08:20:22.884Z,82.60
2017-12-17T08:22:50.499Z,82.60
2017-12-17T08:25:18.089Z,82.50
2017-12-17T08:27:45.705Z,82.50
2017-12-17T08:30:14.026Z,81.40
2017-12-17T08:32:41.614Z,81.40
2017-12-17T08:35:09.211Z,81.50
2017-12-17T08:37:36.828Z,80.70
2017-12-17T08:40:05.186Z,80.80
2017-12-17T08:42:32.749Z,80.80
2017-12-17T08:45:00.358Z,79.70
2017-12-17T08:47:27.905Z,79.60
2017-12-17T08:49:55.480Z,78.80
2017-12-17T08:52:23.099Z,79.70
2017-12-17T08:54:51.444Z,79.30
2017-12-17T08:57:19.042Z,79.20
2017-12-17T08:59:47.363Z,78.60
2017-12-17T09:02:14.971Z,78.60
2017-12-17T09:04:42.584Z,79.00
2017-12-17T09:07:10.140Z,77.40
2017-12-17T09:09:37.726Z,77.40
2017-12-17T09:12:05.334Z,77.30
2017-12-17T09:14:32.945Z,77.30
2017-12-17T09:17:00.522Z,77.30
2017-12-17T09:19:28.127Z,77.70
2017-12-17T09:21:55.743Z,76.90
2017-12-17T09:24:23.354Z,77.10
2017-12-17T09:26:50.964Z,77.40
2017-12-17T09:29:18.518Z,77.50
2017-12-17T09:31:46.156Z,76.90
2017-12-17T09:34:13.702Z,76.90
2017-12-17T09:36:41.304Z,77.40
2017-12-17T09:39:08.889Z,77.20
2017-12-17T09:41:37.251Z,77.10
2017-12-17T09:44:04.796Z,77.10
2017-12-17T09:46:32.401Z,77.40
2017-12-17T09:49:00.778Z,77.30
2017-12-17T09:51:29.105Z,76.60
2017-12-17T09:53:56.673Z,76.60
2017-12-17T09:56:24.289Z,76.80
2017-12-17T09:58:52.610Z,76.40
2017-12-17T10:01:20.187Z,76.30
2017-12-17T10:03:47.787Z,76.00
2017-12-17T10:06:16.114Z,75.40
2017-12-17T10:08:43.705Z,75.40
2017-12-17T10:11:11.256Z,75.90
2017-12-17T10:13:39.739Z,74.30
2017-12-17T10:16:07.443Z,75.50
2017-12-17T10:18:35.001Z,75.10
2017-12-17T10:21:02.566Z,75.60
2017-12-17T10:23:30.167Z,75.20
2017-12-17T10:25:57.731Z,74.90
2017-12-17T10:28:25.318Z,73.70
2017-12-17T10:30:53.688Z,74.70
2017-12-17T10:33:21.311Z,74.60
2017-12-17T10:35:48.878Z,75.30
2017-12-17T10:38:16.473Z,74.00
2017-12-17T10:40:44.828Z,74.90
2017-12-17T10:43:12.403Z,74.90
2017-12-17T10:45:39.994Z,75.20
2017-12-17T10:48:07.612Z,74.60
2017-12-17T10:50:35.179Z,75.40
2017-12-17T10:53:02.752Z,74.50
2017-12-17T10:55:30.358Z,75.30
2017-12-17T10:57:57.950Z,74.80
2017-12-17T11:00:25.523Z,74.20
2017-12-17T11:02:53.117Z,74.20
2017-12-17T11:05:21.510Z,75.20
2017-12-17T11:07:49.079Z,75.20
2017-12-17T11:10:16.700Z,74.20
2017-12-17T11:12:45.040Z,74.30
2017-12-17T11:15:12.633Z,74.30
2017-12-17T11:17:40.228Z,74.20
2017-12-17T11:20:08.562Z,74.20
2017-12-17T11:22:36.186Z,74.20
2017-12-17T11:25:04.514Z,74.60
2017-12-17T11:27:32.114Z,74.60
2017-12-17T11:29:59.724Z,74.00
2017-12-17T11:32:27.295Z,74.60
2017-12-17T11:34:54.926Z,74.10
2017-12-17T11:37:22.486Z,73.40
2017-12-17T11:39:50.087Z,73.40
2017-12-17T11:42:18.431Z,72.80
2017-12-17T11:44:46.056Z,72.70
2017-12-17T11:47:13.614Z,73.00
2017-12-17T11:49:41.218Z,73.30
2017-12-17T11:52:08.786Z,73.20
2017-12-17T11:54:36.342Z,73.60
2017-12-17T11:57:03.966Z,73.40
2017-12-17T11:59:31.529Z,73.10
2017-12-17T12:01:59.110Z,73.30
2017-12-17T12:04:26.718Z,73.00
2017-12-17T12:06:55.048Z,73.00
2017-12-17T12:09:22.655Z,72.90
2017-12-17T12:11:50.274Z,73.20
2017-12-17T12:14:17.856Z,72.90
2017-12-17T12:16:45.411Z,72.80
2017-12-17T12:19:13.019Z,73.50
2017-12-17T12:21:41.368Z,72.90
2017-12-17T12:24:09.026Z,72.90
2017-12-17T12:26:36.586Z,73.40
2017-12-17T12:29:04.190Z,74.20
2017-12-17T12:31:31.786Z,73.80
2017-12-17T12:33:59.350Z,74.10
2017-12-17T12:36:26.945Z,73.40
2017-12-17T12:38:54.502Z,73.60
2017-12-17T12:41:22.113Z,73.40
2017-12-17T12:43:49.687Z,73.20
2017-12-17T12:46:17.265Z,74.00
2017-12-17T12:48:44.886Z,73.80
2017-12-17T12:51:12.457Z,74.20
2017-12-17T12:53:40.065Z,74.70
2017-12-17T12:56:08.433Z,74.00
2017-12-17T12:58:36.062Z,73.90
2017-12-17T13:01:03.661Z,74.80
2017-12-17T13:03:31.326Z,73.80
2017-12-17T13:05:58.877Z,73.10
2017-12-17T13:08:26.460Z,73.70
2017-12-17T13:10:54.861Z,74.10
2017-12-17T13:13:22.415Z,74.10
2017-12-17T13:15:50.027Z,74.30
2017-12-17T13:18:17.631Z,74.50
2017-12-17T13:20:45.962Z,74.00
2017-12-17T13:23:13.594Z,74.00
2017-12-17T13:25:41.157Z,74.80
2017-12-17T13:28:08.723Z,74.30
2017-12-17T13:30:36.340Z,74.60
2017-12-17T13:33:03.939Z,74.60
2017-12-17T13:35:31.572Z,74.60
2017-12-17T13:37:59.974Z,75.00
2017-12-17T13:40:27.543Z,75.00
2017-12-17T13:42:55.133Z,74.50
2017-12-17T13:45:22.739Z,75.40
2017-12-17T13:47:51.057Z,75.20
2017-12-17T13:50:18.632Z,75.20
2017-12-17T13:52:46.226Z,75.10
2017-12-17T13:55:14.589Z,75.50
2017-12-17T13:57:42.172Z,75.50
2017-12-17T14:00:10.569Z,75.60
2017-12-17T14:02:38.185Z,75.60
2017-12-17T14:05:05.746Z,75.80
2017-12-17T14:07:33.305Z,75.40
2017-12-17T14:10:00.940Z,75.30
2017-12-17T14:12:28.569Z,75.70
2017-12-17T14:14:56.912Z,75.60
2017-12-17T14:17:24.481Z,75.60
2017-12-17T14:19:52.086Z,75.90
2017-12-17T14:22:19.666Z,75.40
2017-12-17T14:24:47.253Z,75.60
2017-12-17T14:27:15.630Z,74.80
2017-12-17T14:29:43.246Z,74.80
2017-12-17T14:32:10.820Z,74.90
2017-12-17T14:34:38.428Z,74.90
2017-12-17T14:37:06.019Z,74.50
2017-12-17T14:39:33.633Z,74.90
2017-12-17T14:42:01.214Z,74.80
2017-12-17T14:44:29.629Z,74.80
2017-12-17T14:46:57.226Z,74.70
2017-12-17T14:49:24.857Z,74.30
2017-12-17T14:51:52.461Z,74.70
2017-12-17T14:54:20.041Z,74.10
2017-12-17T14:56:47.643Z,74.00
2017-12-17T14:59:15.274Z,74.10
2017-12-17T15:01:43.610Z,74.20
2017-12-17T15:04:11.170Z,74.20
2017-12-17T15:06:38.767Z,74.30
2017-12-17T15:09:06.346Z,74.40
2017-12-17T15:11:33.983Z,74.50
2017-12-17T15:14:01.549Z,74.90
2017-12-17T15:16:29.882Z,75.00
2017-12-17T15:18:57.488Z,75.00
2017-12-17T15:21:25.857Z,74.90
2017-12-17T15:23:53.414Z,74.90
2017-12-17T15:26:21.027Z,74.60
2017-12-17T15:28:49.362Z,75.30
2017-12-17T15:31:16.942Z,75.30
2017-12-17T15:33:44.560Z,75.30
2017-12-17T15:36:12.157Z,74.50
2017-12-17T15:38:40.477Z,74.70
2017-12-17T15:41:08.091Z,74.60
2017-12-17T15:43:36.426Z,75.50
2017-12-17T15:46:03.995Z,75.40
2017-12-17T15:48:31.585Z,75.80
2017-12-17T15:50:59.191Z,75.30
2017-12-17T15:53:26.763Z,75.20
2017-12-17T15:55:54.330Z,75.60
2017-12-17T15:58:21.968Z,75.20
2017-12-17T16:00:50.343Z,75.00
2017-12-17T16:03:17.910Z,75.20
2017-12-17T16:05:45.529Z,75.60
2017-12-17T16:08:13.880Z,75.70
2017-12-17T16:10:41.467Z,75.60
2017-12-17T16:13:09.062Z,76.00
2017-12-17T16:15:36.698Z,75.80
2017-12-17T16:18:05.042Z,76.30
2017-12-17T16:20:32.662Z,76.20
2017-12-17T16:23:00.230Z,76.60
2017-12-17T16:25:27.883Z,76.50
2017-12-17T16:27:55.445Z,76.50
2017-12-17T16:30:23.029Z,77.70
2017-12-17T16:32:50.623Z,77.90
2017-12-17T16:35:18.207Z,78.50
2017-12-17T16:37:46.600Z,79.40
2017-12-17T16:40:14.941Z,80.00
2017-12-17T16:42:42.510Z,80.00
2017-12-17T16:45:10.105Z,80.10
2017-12-17T16:47:37.694Z,80.00
2017-12-17T16:50:05.352Z,79.50
2017-12-17T16:52:32.892Z,79.30
2017-12-17T16:55:00.515Z,79.20
2017-12-17T16:57:28.068Z,79.10
2017-12-17T16:59:55.634Z,79.70
2017-12-17T17:02:23.230Z,78.90
2017-12-17T17:04:50.849Z,79.00
2017-12-17T17:07:18.417Z,78.30
2017-12-17T17:09:45.983Z,78.20
2017-12-17T17:12:13.596Z,78.10
2017-12-17T17:14:41.194Z,78.50
2017-12-17T17:17:11.768Z,78.20
2017-12-17T17:19:41.354Z,77.90
2017-12-17T17:22:11.924Z,77.80
2017-12-17T17:24:41.947Z,77.80
2017-12-17T17:27:12.727Z,77.80
2017-12-17T17:29:43.112Z,78.10
2017-12-17T17:32:12.782Z,77.90
2017-12-17T17:34:41.155Z,78.30
2017-12-17T17:37:08.730Z,78.30
2017-12-17T17:39:37.048Z,78.60
2017-12-17T17:42:04.637Z,78.60
2017-12-17T17:44:32.265Z,78.20
2017-12-17T17:46:59.846Z,78.30
2017-12-17T17:49:27.448Z,78.40
2017-12-17T17:51:55.785Z,78.20
2017-12-17T17:54:23.357Z,78.10
2017-12-17T17:56:50.990Z,78.50
2017-12-17T17:59:19.346Z,78.80
2017-12-17T18:01:46.917Z,78.80
2017-12-17T18:04:15.288Z,78.90
2017-12-17T18:06:42.864Z,78.90
2017-12-17T18:09:10.461Z,79.10
2017-12-17T18:11:38.065Z,78.50
2017-12-17T18:14:05.626Z,78.60
2017-12-17T18:16:33.225Z,78.20
2017-12-17T18:19:00.796Z,78.10
2017-12-17T18:21:28.388Z,78.60
2017-12-17T18:23:56.714Z,78.10
2017-12-17T18:26:24.323Z,78.10
2017-12-17T18:28:52.684Z,78.30
2017-12-17T18:31:20.233Z,78.40
2017-12-17T18:33:47.829Z,78.30
2017-12-17T18:36:16.164Z,78.20
2017-12-17T18:38:43.777Z,78.20
2017-12-17T18:41:11.349Z,77.80
2017-12-17T18:43:38.956Z,77.70
2017-12-17T18:46:06.512Z,77.60
2017-12-17T18:48:34.087Z,78.10
2017-12-17T18:51:01.695Z,78.60
2017-12-17T18:53:29.297Z,78.60
2017-12-17T18:55:56.913Z,78.50
2017-12-17T18:58:24.524Z,78.40
2017-12-17T19:00:52.082Z,78.90
2017-12-17T19:03:19.646Z,78.70
2017-12-17T19:05:47.249Z,78.40
2017-12-17T19:08:14.833Z,78.40
2017-12-17T19:10:42.399Z,78.30
2017-12-17T19:13:10.757Z,78.10
2017-12-17T19:15:38.326Z,78.00
2017-12-17T19:18:05.950Z,77.80
2017-12-17T19:20:33.525Z,78.30
2017-12-17T19:23:01.877Z,78.10
2017-12-17T19:25:29.441Z,78.00
2017-12-17T19:27:57.049Z,78.10
2017-12-17T19:30:24.656Z,78.30
2017-12-17T19:32:52.257Z,78.50
2017-12-17T19:35:19.852Z,78.60
2017-12-17T19:37:47.406Z,78.40
2017-12-17T19:40:15.048Z,78.50
2017-12-17T19:42:42.601Z,78.70
2017-12-17T19:45:10.207Z,79.10
2017-12-17T19:47:37.814Z,78.50
2017-12-17T19:50:06.177Z,78.20
2017-12-17T19:52:34.551Z,78.00
2017-12-17T19:55:02.198Z,77.90
2017-12-17T19:57:29.728Z,78.20
2017-12-17T19:59:57.334Z,78.50
2017-12-17T20:02:24.899Z,78.10
2017-12-17T20:04:52.500Z,77.70
2017-12-17T20:07:20.114Z,77.70
2017-12-17T20:09:47.729Z,77.40
2017-12-17T20:12:15.294Z,77.70
2017-12-17T20:14:42.872Z,77.50
2017-12-17T20:17:10.487Z,78.10
2017-12-17T20:19:38.048Z,77.80
2017-12-17T20:22:05.604Z,77.40
2017-12-17T20:24:33.979Z,77.70
2017-12-17T20:27:02.371Z,77.30
2017-12-17T20:29:29.944Z,77.30
2017-12-17T20:31:57.562Z,77.40
2017-12-17T20:34:25.113Z,77.40
2017-12-17T20:36:52.706Z,78.40
2017-12-17T20:39:20.274Z,77.70
2017-12-17T20:41:47.882Z,77.40
2017-12-17T20:44:15.489Z,76.90
2017-12-17T20:46:43.092Z,77.00
2017-12-17T20:49:10.637Z,76.80
2017-12-17T20:51:38.237Z,77.00
2017-12-17T20:54:05.807Z,76.60
2017-12-17T20:56:34.146Z,76.80
2017-12-17T20:59:01.731Z,76.80
2017-12-17T21:01:31.389Z,76.70
2017-12-17T21:03:59.008Z,76.80
2017-12-17T21:06:26.568Z,76.90
2017-12-17T21:08:54.183Z,76.60
2017-12-17T21:11:21.739Z,76.70
2017-12-17T21:13:49.326Z,76.70
2017-12-17T21:16:16.892Z,76.50
2017-12-17T21:18:44.513Z,76.10
2017-12-17T21:21:12.117Z,76.50
2017-12-17T21:23:39.682Z,76.50
2017-12-17T21:26:07.249Z,76.60
2017-12-17T21:28:34.869Z,77.00
2017-12-17T21:31:02.478Z,77.00
2017-12-17T21:33:30.030Z,76.80
2017-12-17T21:35:57.646Z,76.90
2017-12-17T21:38:25.276Z,76.80
2017-12-17T21:40:53.705Z,76.80
2017-12-17T21:43:21.249Z,76.80
2017-12-17T21:45:48.845Z,76.70
2017-12-17T21:48:16.477Z,76.80
2017-12-17T21:50:44.069Z,76.60
2017-12-17T21:53:11.658Z,76.50
2017-12-17T21:55:42.199Z,76.90
2017-12-17T21:58:09.879Z,76.70
2017-12-17T22:00:37.476Z,76.60
2017-12-17T22:03:06.749Z,76.50
2017-12-17T22:05:34.312Z,76.50
2017-12-17T22:08:01.913Z,76.70
2017-12-17T22:10:29.476Z,76.70
2017-12-17T22:12:57.072Z,76.50
2017-12-17T22:15:25.412Z,76.50
2017-12-17T22:17:53.026Z,76.50
2017-12-17T22:20:20.628Z,76.50
2017-12-17T22:22:48.283Z,76.40
2017-12-17T22:25:15.837Z,76.40
2017-12-17T22:27:43.441Z,75.80
2017-12-17T22:30:11.012Z,76.00
2017-12-17T22:32:39.338Z,76.30
2017-12-17T22:35:06.939Z,76.30
2017-12-17T22:37:35.306Z,75.60
2017-12-17T22:40:02.878Z,75.60
2017-12-17T22:42:30.493Z,75.80
2017-12-17T22:44:58.118Z,75.80
2017-12-17T22:47:26.448Z,75.10
2017-12-17T22:49:54.026Z,75.10
2017-12-17T22:52:21.634Z,75.00
2017-12-17T22:54:49.229Z,75.30
2017-12-17T22:57:16.797Z,75.20
2017-12-17T22:59:44.397Z,75.70
2017-12-17T23:02:12.724Z,75.00
2017-12-17T23:04:40.378Z,74.80
2017-12-17T23:07:07.969Z,74.60
2017-12-17T23:09:35.536Z,74.30
2017-12-17T23:12:03.128Z,74.50
2017-12-17T23:14:30.697Z,74.50
2017-12-17T23:16:58.309Z,73.90
2017-12-17T23:19:25.920Z,74.10
2017-12-17T23:21:53.473Z,74.20
2017-12-17T23:24:21.055Z,74.50
2017-12-17T23:26:48.643Z,74.40
2017-12-17T23:29:16.272Z,74.10
2017-12-17T23:31:44.661Z,74.20
2017-12-17T23:34:12.229Z,74.20
2017-12-17T23:36:39.821Z,74.10
2017-12-17T23:39:07.389Z,73.70
2017-12-17T23:41:34.989Z,73.50
2017-12-17T23:44:02.575Z,73.00
2017-12-17T23:46:30.141Z,73.20
2017-12-17T23:48:57.749Z,72.40
2017-12-17T23:51:26.095Z,72.00
2017-12-17T23:53:53.645Z,71.90
2017-12-17T23:56:21.258Z,72.60
2017-12-17T23:58:48.823Z,72.60
